Portada
METAR-TAF:

METAR-TAF

Aeroports :

Dalian, Xina

latitud: 38-54N, longitud: 121-38E, altitud: 97 m

Observació

L'informe es va fer fa 41 minuts, a les 12:30 UTC
Vent 12 kt del Sud
Temperatura 7°C
Humitat 70%
Pressió 1020 hPa
Visibilitat 10 km o més
sense núvols per sota de 1500 mi sense presència de cumulonimbus.

METAR: ZYTL 231230Z 19006MPS CAVOK 07/02 Q1020 NOSIG

Hora: 21:11 (13:11 UTC)

Pronòstic

L'informe es va fer fa 4 hores i 0 minuts, a les 09:11 UTC
Pronòstic vàlid del 23 a les 12 UTC al 24 a les 12 UTC
Vent 12 kt del Sud/Sud-Oest amb ràfegues de 23 kt
Visibilitat: 4000 m
boirina
Evolucionant progressivament
l' 23 a les 19 UTC al 23 a les 20 UTC
Vent 10 kt del Est

TAF: ZYTL 230911Z 2312/2412 21006G12MPS 4000 BR NSC TX08/2406Z TN02/2322Z BECMG 2319/2320 09005MPS

Observacions i pronòstics meteorològics de més de 4000 aeroports (METAR i TAF).

Les estacions disponibles són els punts grocs i vermells al mapa.

Posi el ratolí al punt desitjat per veure el nom de l'estació.

Feu clic per veure les observacions i els pronòstics meteorològics.

Per canviar el mapa: feu clic els botons verds amb una creu de color negre per apropar; al botó verd amb un guió per allunyar la imatge; o en les fletxes verdes per a mapes adjacents.


METAR-TAF: